This is the latest recevied weather packets stored in our database for station/object W3TMB. If no packets are shown the sender has not sent any weather packets the latest 10 day(s).
| Time | Temp. | Humidity | Pressure | Rain* | Wind** | Luminosity | Snow |
|---|---|---|---|---|---|---|---|
| 1777655131 | 13.89° C | 50% | 1009.2 hPa | 0 mm | - | 239 W/m² | - |
| 1777654829 | 14.44° C | 50% | 1009.1 hPa | 0 mm | - | 335 W/m² | - |
| 1777654527 | 15° C | 48% | 1009.4 hPa | 0 mm | - | 405 W/m² | - |
| 1777654224 | 14.44° C | 50% | 1009.3 hPa | 0 mm | - | 327 W/m² | - |
| 1777653921 | 14.44° C | 47% | 1009.5 hPa | 0 mm | - | 364 W/m² | - |
| 1777653618 | 13.89° C | 49% | 1009.6 hPa | 0 mm | - | 347 W/m² | - |
| 1777653314 | 14.44° C | 47% | 1009.6 hPa | 0 mm | - | 373 W/m² | - |
| 1777653011 | 13.89° C | 49% | 1009.8 hPa | 0 mm | - | 380 W/m² | - |
| 1777652708 | 13.89° C | 49% | 1009.8 hPa | 0 mm | - | 379 W/m² | - |
| 1777652404 | 14.44° C | 48% | 1010 hPa | 0 mm | - | 377 W/m² | - |
| 1777652102 | 14.44° C | 46% | 1010.3 hPa | 0 mm | - | 330 W/m² | - |
| 1777651798 | 15° C | 48% | 1010.2 hPa | 0 mm | - | 634 W/m² | - |
| 1777651495 | 15° C | 43% | 1010.2 hPa | 0 mm | - | 674 W/m² | - |
| 1777651192 | 13.89° C | 46% | 1010.3 hPa | 0 mm | - | 815 W/m² | - |
| 1777650889 | 14.44° C | 44% | 1010.4 hPa | 0 mm | - | 416 W/m² | - |
| 1777650586 | 14.44° C | 42% | 1010.5 hPa | 0 mm | - | 400 W/m² | - |
| 1777650283 | 15° C | 39% | 1010.5 hPa | 0 mm | - | 432 W/m² | - |
| 1777649980 | 15.56° C | 42% | 1010.5 hPa | 0 mm | - | 823 W/m² | - |
| 1777649678 | 15.56° C | 45% | 1010.9 hPa | 0 mm | - | 835 W/m² | - |
| 1777649373 | 14.44° C | 50% | 1010.7 hPa | 0 mm | - | 862 W/m² | - |
| 1777649071 | 15° C | 45% | 1011 hPa | 0 mm | - | 881 W/m² | - |
| 1777648768 | 15.56° C | 46% | 1010.9 hPa | 0 mm | - | 713 W/m² | - |
| 1777648465 | 15° C | 45% | 1011.1 hPa | 0 mm | - | 906 W/m² | - |
| 1777648161 | 13.89° C | 47% | 1011.1 hPa | 0 mm | - | 880 W/m² | - |
| 1777647857 | 13.89° C | 46% | 1011 hPa | 0 mm | - | 805 W/m² | - |
* Rain latest hour (hover to see other rain measurements)
** Current wind speed in m/s (hover to see current wind gust speed)